Pagrindinis puslapis
METAR-TAF:

METAR-TAF

Oro uostai :

Bergerac, Prancūzija

platuma: 44-49N, ilguma: 000-31E, Aukštis: 51 m

Dabartinis oras

Ataskaita buvo paskelbta 38 minutes, ne 15:30 UTC
Vėjas 6 kt iš Šiaurės Rytų, svyruoja nuo Šiaurės ir Rytų
Temperatūra 16°C
Drėgmė 48%
Slėgis 1014 hPa
Matomumas 10 km arba daugiau
nėra debesų žemiau 1500 m ir nėra kamuolinių lietaus debesų

METAR: LFBE 311530Z AUTO 05006KT 010V080 CAVOK 16/05 Q1014

Laikas: 18:08 (16:08 UTC)


TAF: trūkstamas

Orai ataskaitas ir orų prognozės (METAR, TAF).

turimą stotys yra geltonos ir raudonos taškus žemėlapyje.

Perkelti pele per norėdami pamatyti stoties vardą.

Tada spustelėkite, norėdami matyti oro stebėjimo ir prognozės.

Norėdami pakeisti žemėlapį: spustelėkite ant žalios mygtukų su juodo kryžiaus žemyn,; žalią mygtuką su brūkšneliu, jei norite nutolinti; arba žalių rodyklių gretimoms žemėlapius.


METAR-TAF: